Dodworth, United Kingdom
Current Conditions -  °F | °C
As of 6:20 AM on Friday 31 Oct 2014 (Local Time) from EGCN Reporting Station
Overcast Overcast  
Wind Chill: 59°   Ceiling: 1600
Heat Index: 59°   Visibility: 4mi
Dew Point: 57°   Wind: 12mph
Humidity: 94%   Direction: 180°S
Pressure: 29.97"   Gusts: NA
Location:  53.54°N, 1.53°W
Report Text: EGCN 310620Z 18010KT 7000 BKN016 OVC022 15/14 Q1015
Loading
Personal Weather Stations






























Interactive Weather Map
Tropical Storm Tracking
New forecast layout! Learn more

10-Day Weather Forecast

Advertisements
Track Severe Weather on mobile